createdAt,value
2023-02-11T00:00:26.100Z,40.00
2023-02-11T00:02:59.071Z,35.70
2023-02-11T00:05:32.103Z,38.80
2023-02-11T00:08:05.307Z,43.90
2023-02-11T00:10:38.931Z,40.70
2023-02-11T00:13:12.166Z,39.30
2023-02-11T00:15:46.452Z,38.80
2023-02-11T00:18:20.386Z,34.90
2023-02-11T00:20:53.396Z,36.10
2023-02-11T00:23:26.333Z,44.40
2023-02-11T00:26:00.019Z,41.80
2023-02-11T00:28:33.551Z,41.70
2023-02-11T00:31:07.288Z,33.70
2023-02-11T00:33:42.145Z,38.60
2023-02-11T00:36:18.310Z,34.70
2023-02-11T00:38:53.439Z,36.00
2023-02-11T00:41:27.183Z,37.30
2023-02-11T00:44:00.737Z,31.20
2023-02-11T00:46:34.021Z,34.10
2023-02-11T00:49:07.836Z,32.70
2023-02-11T00:51:41.780Z,37.40
2023-02-11T00:54:14.980Z,32.60
2023-02-11T00:56:48.061Z,34.50
2023-02-11T00:59:21.460Z,31.50
2023-02-11T01:01:54.420Z,37.30
2023-02-11T01:04:27.805Z,36.50
2023-02-11T01:07:00.723Z,34.80
2023-02-11T01:09:33.880Z,36.30
2023-02-11T01:12:07.488Z,40.50
2023-02-11T01:14:41.345Z,37.60
2023-02-11T01:17:14.249Z,37.40
2023-02-11T01:19:47.839Z,37.00
2023-02-11T01:22:20.936Z,34.30
2023-02-11T01:24:54.300Z,37.90
2023-02-11T01:27:27.652Z,34.00
2023-02-11T01:30:02.352Z,32.20
2023-02-11T01:32:35.960Z,30.70
2023-02-11T01:35:11.294Z,37.10
2023-02-11T01:37:44.811Z,38.40
2023-02-11T01:40:20.279Z,32.00
2023-02-11T01:42:53.342Z,32.20
2023-02-11T01:46:11.103Z,30.40
2023-02-11T01:48:45.466Z,34.90
2023-02-11T01:51:20.113Z,33.80
2023-02-11T01:54:10.853Z,28.20
2023-02-11T01:57:05.234Z,31.30
2023-02-11T01:59:41.328Z,34.00
2023-02-11T02:02:15.314Z,30.00
2023-02-11T02:04:52.836Z,34.30
2023-02-11T02:07:30.621Z,32.60
2023-02-11T02:10:06.525Z,31.30
2023-02-11T02:12:59.698Z,36.50
2023-02-11T02:15:33.494Z,37.00
2023-02-11T02:18:19.539Z,30.70
2023-02-11T02:21:29.458Z,35.00
2023-02-11T02:24:25.754Z,30.90
2023-02-11T02:27:10.437Z,40.00
2023-02-11T02:30:15.769Z,30.60
2023-02-11T02:32:55.825Z,29.90
2023-02-11T02:35:34.698Z,32.20
2023-02-11T02:38:10.570Z,40.50
2023-02-11T02:40:50.347Z,30.50
2023-02-11T02:43:23.535Z,31.10
2023-02-11T02:45:56.397Z,32.00
2023-02-11T02:48:33.219Z,30.80
2023-02-11T02:51:10.682Z,31.70
2023-02-11T02:53:50.041Z,34.30
2023-02-11T02:56:25.129Z,34.40
2023-02-11T02:59:19.578Z,32.80
2023-02-11T03:01:55.425Z,30.60
2023-02-11T03:04:30.936Z,32.20
2023-02-11T03:07:05.669Z,37.30
2023-02-11T03:09:40.724Z,36.90
2023-02-11T03:12:13.642Z,35.30
2023-02-11T03:14:47.219Z,34.30
2023-02-11T03:17:20.315Z,36.40
2023-02-11T03:19:54.108Z,38.80
2023-02-11T03:22:29.595Z,30.40
2023-02-11T03:25:02.882Z,28.80
2023-02-11T03:27:38.978Z,28.00
2023-02-11T03:30:14.761Z,29.30
2023-02-11T03:32:51.007Z,32.90
2023-02-11T03:35:25.945Z,32.80
2023-02-11T03:38:01.552Z,33.70
2023-02-11T03:40:36.957Z,36.40
2023-02-11T03:43:10.421Z,37.50
2023-02-11T03:45:46.257Z,31.90
2023-02-11T03:48:20.844Z,35.00
2023-02-11T03:50:53.845Z,37.40
2023-02-11T03:53:27.229Z,34.80
2023-02-11T03:56:01.632Z,35.40
2023-02-11T03:58:34.815Z,32.10
2023-02-11T04:01:10.139Z,34.60
2023-02-11T04:03:44.029Z,34.60
2023-02-11T04:06:17.020Z,33.30
2023-02-11T04:08:50.271Z,33.10
2023-02-11T04:11:27.061Z,35.50
2023-02-11T04:13:59.741Z,31.90
2023-02-11T04:16:34.258Z,35.30
2023-02-11T04:19:08.180Z,38.30
2023-02-11T04:21:41.932Z,32.40
2023-02-11T04:24:16.916Z,32.60
2023-02-11T04:26:49.986Z,38.90
2023-02-11T04:29:23.340Z,38.00
2023-02-11T04:31:56.626Z,34.40
2023-02-11T04:34:30.539Z,35.40
2023-02-11T04:37:08.649Z,32.80
2023-02-11T04:39:43.376Z,41.50
2023-02-11T04:42:21.486Z,36.90
2023-02-11T04:44:57.233Z,37.50
2023-02-11T04:47:30.940Z,32.90
2023-02-11T04:50:04.850Z,35.30
2023-02-11T04:52:38.488Z,32.50
2023-02-11T04:55:12.106Z,37.60
2023-02-11T04:57:45.284Z,34.30
2023-02-11T05:00:19.936Z,40.10
2023-02-11T05:02:52.886Z,32.90
2023-02-11T05:05:26.035Z,36.40
2023-02-11T05:08:00.258Z,33.90
2023-02-11T05:10:33.252Z,35.10
2023-02-11T05:13:06.381Z,36.30
2023-02-11T05:15:40.490Z,36.00
2023-02-11T05:18:15.073Z,38.30
2023-02-11T05:20:48.092Z,42.80
2023-02-11T05:23:21.352Z,31.80
2023-02-11T05:25:54.429Z,40.20
2023-02-11T05:28:27.384Z,36.60
2023-02-11T05:31:01.177Z,38.80
2023-02-11T05:33:35.234Z,36.50
2023-02-11T05:36:10.551Z,36.10
2023-02-11T05:38:44.186Z,39.80
2023-02-11T05:41:17.066Z,31.00
2023-02-11T05:43:51.348Z,30.90
2023-02-11T05:46:24.625Z,31.90
2023-02-11T05:48:57.965Z,36.70
2023-02-11T05:51:31.148Z,33.30
2023-02-11T05:54:04.403Z,36.30
2023-02-11T05:56:37.631Z,34.50
2023-02-11T05:59:10.937Z,46.40
2023-02-11T06:01:43.895Z,39.30
2023-02-11T06:04:16.994Z,40.70
2023-02-11T06:06:49.720Z,35.70
2023-02-11T06:09:22.668Z,38.80
2023-02-11T06:11:55.694Z,37.60
2023-02-11T06:14:29.351Z,41.70
2023-02-11T06:17:02.878Z,35.20
2023-02-11T06:19:35.913Z,33.20
2023-02-11T06:22:09.371Z,38.00
2023-02-11T06:25:00.354Z,39.40
2023-02-11T06:27:38.097Z,44.30
2023-02-11T06:30:13.041Z,36.10
2023-02-11T06:32:46.432Z,39.80
2023-02-11T06:35:19.754Z,42.50
2023-02-11T06:37:54.763Z,40.30
2023-02-11T06:40:27.778Z,33.30
2023-02-11T06:43:00.768Z,36.20
2023-02-11T06:45:34.370Z,37.30
2023-02-11T06:48:07.716Z,39.90
2023-02-11T06:50:40.656Z,36.20
2023-02-11T06:53:14.106Z,35.60
2023-02-11T06:55:46.864Z,52.40
2023-02-11T06:58:19.996Z,41.10
2023-02-11T07:00:52.794Z,43.10
2023-02-11T07:03:25.885Z,45.20
2023-02-11T07:05:59.265Z,49.00
2023-02-11T07:08:32.119Z,43.80
2023-02-11T07:11:10.071Z,66.00
2023-02-11T07:13:43.564Z,51.80
2023-02-11T07:16:17.612Z,44.90
2023-02-11T07:18:50.932Z,44.10
2023-02-11T07:21:24.543Z,49.90
2023-02-11T07:23:57.413Z,45.50
2023-02-11T07:26:31.342Z,40.80
2023-02-11T07:29:04.827Z,44.50
2023-02-11T07:31:37.677Z,44.70
2023-02-11T07:34:15.044Z,40.60
2023-02-11T07:36:49.230Z,42.20
2023-02-11T07:39:22.831Z,42.60
2023-02-11T07:41:56.018Z,48.40
2023-02-11T07:44:30.541Z,46.30
2023-02-11T07:47:03.379Z,47.30
2023-02-11T07:49:37.415Z,44.00
2023-02-11T07:52:10.435Z,40.30
2023-02-11T07:54:43.973Z,44.00
2023-02-11T07:57:17.446Z,39.50
2023-02-11T07:59:51.831Z,44.90
2023-02-11T08:02:24.941Z,39.20
2023-02-11T08:04:58.115Z,46.70
2023-02-11T08:07:31.715Z,44.80
2023-02-11T08:10:04.687Z,50.00
2023-02-11T08:12:38.027Z,36.40
2023-02-11T08:15:12.151Z,37.50
2023-02-11T08:17:45.045Z,39.30
2023-02-11T08:20:18.079Z,52.80
2023-02-11T08:22:51.186Z,46.40
2023-02-11T08:25:24.315Z,43.20
2023-02-11T08:27:57.208Z,44.50
2023-02-11T08:30:30.313Z,52.90
2023-02-11T08:33:04.421Z,43.10
2023-02-11T08:35:40.026Z,42.70
2023-02-11T08:38:15.035Z,38.70
2023-02-11T08:40:49.882Z,41.40
2023-02-11T08:43:23.947Z,43.80
2023-02-11T08:45:59.504Z,40.30
2023-02-11T08:48:33.919Z,47.40
2023-02-11T08:51:11.203Z,45.30
2023-02-11T08:53:43.937Z,41.30
2023-02-11T08:56:17.649Z,50.90
2023-02-11T08:58:50.690Z,37.90
2023-02-11T09:01:24.968Z,40.30
2023-02-11T09:03:57.905Z,36.10
2023-02-11T09:06:30.651Z,36.90
2023-02-11T09:09:03.954Z,36.80
2023-02-11T09:11:37.667Z,43.40
2023-02-11T09:14:12.924Z,42.10
2023-02-11T09:16:45.713Z,33.90
2023-02-11T09:19:23.306Z,42.50
2023-02-11T09:21:56.413Z,42.60
2023-02-11T09:24:29.648Z,41.20
2023-02-11T09:27:02.493Z,45.80
2023-02-11T09:29:36.174Z,37.10
2023-02-11T09:32:09.998Z,42.70
2023-02-11T09:34:43.292Z,39.90
2023-02-11T09:37:16.776Z,38.60
2023-02-11T09:39:50.119Z,40.50
2023-02-11T09:42:41.045Z,47.60
2023-02-11T09:45:17.646Z,52.70
2023-02-11T09:47:52.856Z,38.10
2023-02-11T09:50:32.593Z,43.80
2023-02-11T09:53:07.151Z,37.80
2023-02-11T09:55:43.116Z,47.80
2023-02-11T09:58:17.786Z,40.40
2023-02-11T10:00:53.852Z,34.90
2023-02-11T10:03:36.498Z,35.20
2023-02-11T10:06:20.815Z,42.40
2023-02-11T10:09:00.937Z,38.60
2023-02-11T10:11:40.146Z,37.70
2023-02-11T10:14:26.467Z,35.80
2023-02-11T10:17:04.796Z,31.30
2023-02-11T10:19:45.591Z,34.90
2023-02-11T10:22:20.917Z,37.30
2023-02-11T10:24:59.263Z,35.50
2023-02-11T10:27:35.192Z,36.20
2023-02-11T10:30:11.629Z,37.10
2023-02-11T10:32:45.892Z,39.00
2023-02-11T10:35:21.638Z,35.60
2023-02-11T10:37:54.857Z,38.80
2023-02-11T10:40:28.951Z,35.50
2023-02-11T10:43:03.216Z,39.10
2023-02-11T10:45:37.752Z,36.90
2023-02-11T10:48:44.195Z,38.80
2023-02-11T10:51:26.560Z,36.00
2023-02-11T10:54:19.783Z,39.20
2023-02-11T10:56:53.713Z,40.80
2023-02-11T10:59:28.685Z,38.60
2023-02-11T11:02:02.300Z,39.50
2023-02-11T11:04:41.232Z,34.50
2023-02-11T11:07:16.286Z,37.70
2023-02-11T11:09:52.455Z,35.60
2023-02-11T11:12:35.062Z,35.30
2023-02-11T11:15:19.129Z,34.50
2023-02-11T11:18:21.435Z,36.40
2023-02-11T11:21:01.159Z,37.60
2023-02-11T11:23:36.459Z,32.40
2023-02-11T11:26:13.153Z,31.80
2023-02-11T11:28:52.431Z,34.80
2023-02-11T11:31:26.802Z,31.50
2023-02-11T11:34:02.207Z,35.10
2023-02-11T11:36:41.728Z,35.30
2023-02-11T11:39:21.722Z,37.20
2023-02-11T11:41:56.058Z,39.90
2023-02-11T11:44:33.919Z,39.50
2023-02-11T11:47:25.220Z,40.20
2023-02-11T11:50:17.397Z,43.90
2023-02-11T11:52:54.654Z,38.60
2023-02-11T11:55:29.546Z,37.90
2023-02-11T11:58:02.826Z,41.60
2023-02-11T12:00:39.406Z,42.50
2023-02-11T12:03:40.192Z,38.30
2023-02-11T12:06:20.038Z,39.00
2023-02-11T12:08:59.875Z,38.40
2023-02-11T12:11:37.480Z,40.80
2023-02-11T12:14:16.588Z,37.30
2023-02-11T12:16:54.652Z,39.90
2023-02-11T12:19:56.594Z,39.50
2023-02-11T12:22:38.458Z,36.00
2023-02-11T12:25:30.113Z,40.50
2023-02-11T12:28:12.205Z,40.60
2023-02-11T12:30:51.622Z,38.90
2023-02-11T12:33:31.773Z,37.20
2023-02-11T12:36:06.941Z,39.60
2023-02-11T12:39:05.112Z,41.20
2023-02-11T12:42:08.846Z,45.20
2023-02-11T12:44:54.308Z,39.60
2023-02-11T12:47:30.007Z,41.80
2023-02-11T12:50:09.825Z,41.80
2023-02-11T12:52:51.507Z,42.80
2023-02-11T12:57:57.085Z,50.90
2023-02-11T13:00:31.711Z,47.20
2023-02-11T13:03:05.896Z,47.50
2023-02-11T13:05:41.094Z,46.00
2023-02-11T13:08:15.555Z,46.50
2023-02-11T13:10:52.303Z,45.00
2023-02-11T13:13:26.978Z,43.20
2023-02-11T13:16:04.397Z,46.70
2023-02-11T13:18:56.427Z,47.90
2023-02-11T13:21:54.308Z,52.30
2023-02-11T13:24:32.966Z,47.50
2023-02-11T13:27:11.270Z,49.70
2023-02-11T13:29:58.700Z,52.00
2023-02-11T13:32:31.553Z,48.40
2023-02-11T13:35:04.322Z,45.70
2023-02-11T13:37:39.649Z,53.20
2023-02-11T13:40:25.088Z,47.90
2023-02-11T13:42:59.185Z,46.30
2023-02-11T13:45:35.256Z,44.10
2023-02-11T13:48:10.283Z,46.10
2023-02-11T13:50:48.284Z,49.20
2023-02-11T13:53:21.577Z,53.50
2023-02-11T13:55:55.909Z,44.30
2023-02-11T13:58:47.891Z,50.10
2023-02-11T14:01:42.203Z,51.90
2023-02-11T14:04:42.148Z,49.30
2023-02-11T14:07:49.560Z,48.20
2023-02-11T14:10:53.568Z,52.40
2023-02-11T14:13:28.110Z,46.30
2023-02-11T14:16:13.722Z,47.60
2023-02-11T14:19:03.267Z,44.60
2023-02-11T14:21:40.573Z,45.70
2023-02-11T14:24:58.102Z,52.80
2023-02-11T14:27:38.352Z,49.00
2023-02-11T14:30:21.918Z,48.40
2023-02-11T14:33:07.672Z,59.50
2023-02-11T14:35:44.056Z,46.30
2023-02-11T14:38:21.855Z,49.10
2023-02-11T14:40:57.401Z,52.40
2023-02-11T14:43:31.895Z,55.80
2023-02-11T14:46:09.118Z,62.20
2023-02-11T14:48:44.698Z,51.90
2023-02-11T14:51:20.729Z,46.90
2023-02-11T14:53:54.823Z,53.30
2023-02-11T14:56:31.282Z,54.40
2023-02-11T14:59:03.959Z,53.40
2023-02-11T15:01:41.643Z,53.50
2023-02-11T15:04:26.730Z,50.70
2023-02-11T15:07:01.658Z,50.90
2023-02-11T15:09:39.041Z,54.40
2023-02-11T15:12:18.153Z,50.10
2023-02-11T15:14:52.010Z,50.80
2023-02-11T15:17:27.318Z,51.10
2023-02-11T15:20:01.708Z,49.80
2023-02-11T15:22:37.167Z,47.70
2023-02-11T15:25:17.009Z,50.70
2023-02-11T15:27:50.778Z,52.30
2023-02-11T15:30:31.919Z,50.70
2023-02-11T15:33:07.215Z,50.10
2023-02-11T15:35:41.453Z,47.90
2023-02-11T15:38:14.915Z,52.10
2023-02-11T15:40:55.587Z,47.60
2023-02-11T15:43:28.558Z,51.60
2023-02-11T15:46:02.878Z,49.60
2023-02-11T15:48:38.811Z,52.70
2023-02-11T15:51:25.782Z,56.20
2023-02-11T15:53:59.172Z,62.10
2023-02-11T15:56:33.308Z,51.10
2023-02-11T15:59:16.009Z,62.40
2023-02-11T16:01:49.376Z,59.30
2023-02-11T16:04:24.086Z,64.50
2023-02-11T16:06:57.467Z,59.20
2023-02-11T16:09:38.103Z,57.30
2023-02-11T16:12:27.536Z,59.50
2023-02-11T16:15:04.342Z,59.70
2023-02-11T16:17:38.382Z,57.70
2023-02-11T16:20:20.996Z,64.10
2023-02-11T16:22:54.952Z,63.40
2023-02-11T16:25:32.752Z,62.90
2023-02-11T16:28:07.090Z,59.00
2023-02-11T16:30:40.656Z,60.80
2023-02-11T16:33:14.331Z,58.80
2023-02-11T16:35:49.058Z,56.70
2023-02-11T16:38:22.230Z,67.10
2023-02-11T16:40:54.873Z,62.60
2023-02-11T16:43:29.620Z,70.40
2023-02-11T16:46:02.761Z,60.70
2023-02-11T16:48:36.578Z,66.60
2023-02-11T16:51:10.523Z,61.10
2023-02-11T16:53:45.771Z,68.30
2023-02-11T16:56:19.951Z,60.50
2023-02-11T16:58:52.994Z,64.50
2023-02-11T17:01:26.171Z,64.50
2023-02-11T17:03:59.914Z,58.90
2023-02-11T17:06:32.694Z,67.70
2023-02-11T17:09:07.074Z,72.80
2023-02-11T17:11:44.226Z,74.10
2023-02-11T17:14:17.635Z,69.30
2023-02-11T17:16:51.058Z,61.70
2023-02-11T17:19:23.860Z,69.50
2023-02-11T17:21:56.806Z,71.50
2023-02-11T17:24:29.713Z,66.20
2023-02-11T17:27:02.973Z,62.80
2023-02-11T17:29:36.318Z,67.20
2023-02-11T17:32:09.810Z,58.80
2023-02-11T17:34:43.887Z,60.20
2023-02-11T17:37:16.425Z,63.50
2023-02-11T17:39:49.090Z,64.80
2023-02-11T17:42:21.922Z,54.40
2023-02-11T17:44:54.765Z,59.60
2023-02-11T17:47:27.664Z,61.40
2023-02-11T17:50:00.309Z,66.30
2023-02-11T17:52:34.646Z,54.40
2023-02-11T17:55:08.694Z,63.00
2023-02-11T17:57:41.685Z,59.90
2023-02-11T18:00:17.869Z,65.10
2023-02-11T18:02:50.801Z,71.40
2023-02-11T18:05:24.492Z,65.20
2023-02-11T18:07:57.408Z,59.70
2023-02-11T18:10:30.854Z,68.10
2023-02-11T18:13:04.017Z,60.30
2023-02-11T18:15:42.933Z,67.20
2023-02-11T18:18:16.021Z,66.40
2023-02-11T18:20:49.050Z,62.50
2023-02-11T18:23:22.250Z,62.90
2023-02-11T18:25:55.454Z,51.40
2023-02-11T18:28:28.554Z,59.00
2023-02-11T18:31:01.675Z,59.40
2023-02-11T18:33:34.945Z,53.90
2023-02-11T18:36:10.265Z,51.20
2023-02-11T18:38:45.907Z,52.50
2023-02-11T18:41:18.876Z,52.00
2023-02-11T18:43:51.639Z,54.30
2023-02-11T18:46:24.442Z,53.00
2023-02-11T18:49:02.179Z,54.70
2023-02-11T18:51:35.886Z,49.40
2023-02-11T18:54:09.056Z,49.20
2023-02-11T18:56:42.076Z,55.00
2023-02-11T18:59:15.836Z,53.00
2023-02-11T19:01:48.813Z,56.00
2023-02-11T19:04:23.578Z,55.60
2023-02-11T19:06:57.149Z,61.10
2023-02-11T19:09:34.787Z,54.70
2023-02-11T19:12:08.788Z,55.40
2023-02-11T19:14:44.266Z,60.80
2023-02-11T19:17:17.194Z,56.20
2023-02-11T19:19:50.103Z,54.00
2023-02-11T19:22:23.647Z,56.90
2023-02-11T19:24:56.574Z,51.20
2023-02-11T19:27:29.424Z,58.20
2023-02-11T19:30:03.297Z,54.90
2023-02-11T19:32:36.337Z,59.80
2023-02-11T19:35:10.154Z,57.40
2023-02-11T19:37:45.916Z,56.90
2023-02-11T19:40:19.482Z,49.50
2023-02-11T19:42:54.684Z,53.90
2023-02-11T19:45:28.322Z,51.50
2023-02-11T19:48:01.430Z,55.80
2023-02-11T19:50:36.737Z,52.80
2023-02-11T19:53:09.611Z,48.90
2023-02-11T19:55:44.190Z,49.80
2023-02-11T19:58:17.275Z,46.00
2023-02-11T20:00:50.199Z,43.00
2023-02-11T20:03:23.512Z,49.70
2023-02-11T20:05:56.266Z,46.20
2023-02-11T20:08:33.342Z,50.60
2023-02-11T20:11:10.539Z,57.60
2023-02-11T20:13:47.569Z,49.00
2023-02-11T20:16:25.355Z,53.10
2023-02-11T20:19:01.871Z,51.20
2023-02-11T20:21:35.270Z,46.10
2023-02-11T20:24:08.378Z,48.50
2023-02-11T20:26:42.764Z,52.80
2023-02-11T20:29:15.883Z,48.30
2023-02-11T20:31:49.856Z,51.10
2023-02-11T20:34:22.920Z,49.20
2023-02-11T20:36:55.859Z,43.50
2023-02-11T20:39:28.552Z,44.50
2023-02-11T20:42:02.128Z,42.80
2023-02-11T20:44:37.031Z,41.90
2023-02-11T20:47:10.834Z,36.50
2023-02-11T20:49:44.323Z,40.30
2023-02-11T20:52:18.175Z,43.90
2023-02-11T20:54:51.523Z,44.20
2023-02-11T20:57:24.543Z,43.80
2023-02-11T20:59:57.363Z,39.30
2023-02-11T21:02:30.649Z,41.90
2023-02-11T21:05:03.586Z,43.10
2023-02-11T21:07:39.109Z,41.50
2023-02-11T21:10:14.311Z,43.40
2023-02-11T21:12:50.004Z,39.50
2023-02-11T21:15:25.475Z,38.50
2023-02-11T21:17:59.995Z,43.80
2023-02-11T21:20:32.697Z,41.60
2023-02-11T21:23:06.093Z,45.10
2023-02-11T21:25:41.976Z,45.00
2023-02-11T21:28:16.984Z,36.70
2023-02-11T21:30:50.805Z,40.70
2023-02-11T21:33:23.666Z,37.10
2023-02-11T21:35:58.855Z,39.20
2023-02-11T21:38:34.960Z,38.90
2023-02-11T21:41:08.425Z,38.00
2023-02-11T21:43:44.055Z,43.30
2023-02-11T21:46:17.541Z,39.80
2023-02-11T21:48:50.284Z,41.90
2023-02-11T21:51:24.956Z,46.80
2023-02-11T21:53:58.526Z,39.00
2023-02-11T21:56:31.693Z,49.60
2023-02-11T21:59:04.502Z,40.30
2023-02-11T22:01:37.431Z,50.70
2023-02-11T22:04:10.952Z,38.60
2023-02-11T22:06:46.961Z,41.90
2023-02-11T22:09:23.714Z,45.00
2023-02-11T22:11:56.697Z,41.10
2023-02-11T22:14:32.197Z,42.60
2023-02-11T22:17:05.696Z,42.90
2023-02-11T22:19:38.598Z,46.70
2023-02-11T22:22:11.400Z,39.50
2023-02-11T22:24:46.107Z,41.60
2023-02-11T22:27:20.340Z,50.10
2023-02-11T22:29:53.454Z,45.80
2023-02-11T22:32:26.436Z,47.50
2023-02-11T22:34:59.217Z,41.50
2023-02-11T22:37:32.658Z,43.60
2023-02-11T22:40:06.121Z,43.80
2023-02-11T22:42:39.361Z,45.80
2023-02-11T22:45:12.979Z,43.80
2023-02-11T22:47:46.676Z,45.50
2023-02-11T22:50:19.819Z,42.80
2023-02-11T22:52:52.971Z,42.80
2023-02-11T22:55:26.007Z,48.00
2023-02-11T22:57:59.605Z,44.90
2023-02-11T23:00:32.521Z,44.40
2023-02-11T23:03:05.381Z,51.40
2023-02-11T23:05:42.782Z,43.30
2023-02-11T23:08:15.962Z,41.00
2023-02-11T23:10:49.626Z,41.40
2023-02-11T23:13:25.110Z,43.10
2023-02-11T23:15:58.119Z,42.10
2023-02-11T23:18:31.762Z,46.70
2023-02-11T23:21:09.478Z,42.00
2023-02-11T23:23:43.838Z,46.70
2023-02-11T23:26:17.727Z,41.90
2023-02-11T23:28:50.930Z,41.70
2023-02-11T23:31:24.828Z,41.20
2023-02-11T23:33:57.956Z,44.40
2023-02-11T23:36:32.121Z,40.40
2023-02-11T23:39:08.967Z,47.60
2023-02-11T23:41:42.547Z,36.40
2023-02-11T23:44:15.584Z,46.00
2023-02-11T23:46:49.098Z,37.60
2023-02-11T23:49:22.296Z,37.30
2023-02-11T23:51:55.230Z,38.90
2023-02-11T23:54:28.651Z,36.30
2023-02-11T23:57:01.658Z,40.60
2023-02-11T23:59:34.784Z,38.80
